Time;durP1;ratioP1;P1;durP2;ratioP2;P2;SDS_P1;SDS_P2;PMS_P1;PMS_P2;Temp;Humidity;BMP_temperature;BMP_pressure;BME280_temperature;BME280_humidity;BME280_pressure;Samples;Min_cycle;Max_cycle;Signal;HPM_P1;HPM_P2
2023/08/31 00:02:05;;;;;;;2.00;1.17;;;;;;;;;;5092524;28;20229;-31
2023/08/31 00:04:33;;;;;;;1.60;1.50;;;;;;;;;;5086581;28;20204;-29
2023/08/31 00:07:00;;;;;;;1.20;1.10;;;;;;;;;;5102075;28;20244;-30
2023/08/31 00:09:29;;;;;;;1.60;1.30;;;;;;;;;;5108683;28;20200;-30
2023/08/31 00:11:57;;;;;;;1.37;1.27;;;;;;;;;;5088892;28;20641;-30
2023/08/31 00:14:24;;;;;;;2.47;1.20;;;;;;;;;;5087610;28;20287;-32
2023/08/31 00:16:52;;;;;;;2.30;1.60;;;;;;;;;;5097314;28;20212;-33
2023/08/31 00:19:19;;;;;;;3.53;1.60;;;;;;;;;;5094204;28;20216;-31
2023/08/31 00:21:46;;;;;;;1.17;1.07;;;;;;;;;;5101915;28;20223;-31
2023/08/31 00:24:14;;;;;;;2.07;1.40;;;;;;;;;;5092771;28;20197;-33
2023/08/31 00:26:42;;;;;;;1.93;1.40;;;;;;;;;;5087993;28;20228;-28
2023/08/31 00:29:11;;;;;;;1.57;1.40;;;;;;;;;;5089950;28;20204;-32
2023/08/31 00:31:39;;;;;;;1.67;1.57;;;;;;;;;;5105656;28;20227;-31
2023/08/31 00:34:06;;;;;;;1.63;1.43;;;;;;;;;;5103441;28;20200;-32
2023/08/31 00:36:34;;;;;;;1.50;1.40;;;;;;;;;;5094761;28;20203;-30
2023/08/31 00:39:07;;;;;;;3.17;1.33;;;;;;;;;;5096462;28;20319;-32
2023/08/31 00:41:34;;;;;;;1.87;1.60;;;;;;;;;;5105062;28;20307;-31
2023/08/31 00:44:04;;;;;;;3.20;1.30;;;;;;;;;;5104069;28;20215;-30
2023/08/31 00:46:32;;;;;;;2.30;1.50;;;;;;;;;;5101686;28;20230;-31
2023/08/31 00:49:00;;;;;;;2.80;1.40;;;;;;;;;;5091417;28;20201;-33
2023/08/31 00:51:27;;;;;;;1.27;1.17;;;;;;;;;;5097787;28;20225;-30
2023/08/31 00:53:55;;;;;;;1.50;1.30;;;;;;;;;;5100168;28;20207;-31
2023/08/31 00:56:22;;;;;;;3.67;1.30;;;;;;;;;;5108812;28;20207;-29
2023/08/31 00:58:49;;;;;;;1.70;1.17;;;;;;;;;;5094377;28;20208;-32
2023/08/31 01:01:21;;;;;;;1.97;1.30;;;;;;;;;;5091186;28;20265;-31
2023/08/31 01:03:53;;;;;;;2.07;1.70;;;;;;;;;;5106205;28;20239;-34
2023/08/31 01:06:25;;;;;;;1.57;1.37;;;;;;;;;;5094407;28;20228;-28
2023/08/31 01:08:57;;;;;;;1.23;1.13;;;;;;;;;;5086309;28;20204;-31
2023/08/31 01:11:31;;;;;;;1.53;1.30;;;;;;;;;;5101650;28;20216;-29
2023/08/31 01:14:03;;;;;;;1.80;1.30;;;;;;;;;;5090090;28;20200;-30
2023/08/31 01:16:31;;;;;;;2.30;1.40;;;;;;;;;;5104517;28;20192;-32
2023/08/31 01:19:00;;;;;;;1.37;1.27;;;;;;;;;;5090859;28;20211;-33
2023/08/31 01:21:30;;;;;;;2.57;1.33;;;;;;;;;;5101899;28;20255;-30
2023/08/31 01:23:58;;;;;;;1.87;1.23;;;;;;;;;;5107421;28;20245;-32
2023/08/31 01:26:26;;;;;;;1.47;1.37;;;;;;;;;;5107138;28;20224;-29
2023/08/31 01:28:54;;;;;;;1.73;1.00;;;;;;;;;;5103009;28;20204;-30
2023/08/31 01:31:21;;;;;;;2.83;1.20;;;;;;;;;;5092876;28;20230;-31
2023/08/31 01:33:49;;;;;;;1.53;1.43;;;;;;;;;;5099043;28;20200;-32
2023/08/31 01:36:20;;;;;;;2.67;1.80;;;;;;;;;;5089824;28;20204;-30
2023/08/31 01:38:50;;;;;;;2.07;1.40;;;;;;;;;;5096487;28;20212;-31
2023/08/31 01:41:21;;;;;;;1.40;1.30;;;;;;;;;;5098706;28;20220;-29
2023/08/31 01:43:49;;;;;;;1.50;1.40;;;;;;;;;;5097075;28;20214;-30
2023/08/31 01:46:17;;;;;;;3.37;1.40;;;;;;;;;;5108250;28;20227;-29
2023/08/31 01:48:44;;;;;;;1.30;1.20;;;;;;;;;;5109040;28;20204;-32
2023/08/31 01:51:12;;;;;;;1.60;1.50;;;;;;;;;;5093539;28;20217;-31
2023/08/31 01:53:39;;;;;;;2.00;1.47;;;;;;;;;;5096886;28;20204;-30
2023/08/31 01:56:06;;;;;;;2.37;1.30;;;;;;;;;;5087898;28;20205;-29
2023/08/31 01:58:35;;;;;;;1.50;1.40;;;;;;;;;;5093408;28;20201;-31
2023/08/31 02:01:02;;;;;;;1.47;1.33;;;;;;;;;;5099829;28;20205;-31
2023/08/31 02:03:29;;;;;;;1.70;1.50;;;;;;;;;;5092609;28;20201;-30
2023/08/31 02:05:57;;;;;;;2.13;1.60;;;;;;;;;;5090421;28;20205;-32
2023/08/31 02:08:24;;;;;;;4.17;1.67;;;;;;;;;;5097460;28;20204;-29
2023/08/31 02:10:51;;;;;;;1.10;1.10;;;;;;;;;;5088509;28;20200;-29
2023/08/31 02:13:18;;;;;;;1.93;1.30;;;;;;;;;;5089765;28;20209;-32
2023/08/31 02:15:47;;;;;;;3.03;1.37;;;;;;;;;;5104430;28;20235;-32
2023/08/31 02:18:14;;;;;;;1.80;1.70;;;;;;;;;;5104079;28;20214;-29
2023/08/31 02:20:41;;;;;;;3.60;1.50;;;;;;;;;;5096721;28;20215;-29
2023/08/31 02:23:09;;;;;;;1.80;1.57;;;;;;;;;;5099208;28;20255;-30
2023/08/31 02:25:36;;;;;;;1.60;1.50;;;;;;;;;;5111747;28;20211;-31
2023/08/31 02:28:03;;;;;;;1.70;1.47;;;;;;;;;;5101824;28;20215;-33
2023/08/31 02:30:30;;;;;;;2.30;1.50;;;;;;;;;;5103735;28;20309;-29
2023/08/31 02:32:59;;;;;;;1.57;1.47;;;;;;;;;;5095350;28;20228;-31
2023/08/31 02:35:26;;;;;;;3.13;1.73;;;;;;;;;;5088016;28;20212;-30
2023/08/31 02:37:53;;;;;;;2.47;1.30;;;;;;;;;;5101194;28;20212;-31
2023/08/31 02:40:20;;;;;;;1.57;1.47;;;;;;;;;;5113798;28;20196;-31
2023/08/31 02:42:48;;;;;;;1.40;1.30;;;;;;;;;;5113726;28;20230;-33
2023/08/31 02:45:16;;;;;;;1.57;1.47;;;;;;;;;;5099515;28;20205;-31
2023/08/31 02:47:43;;;;;;;2.30;1.43;;;;;;;;;;5105279;28;20228;-30
2023/08/31 02:50:11;;;;;;;1.60;1.47;;;;;;;;;;5091620;28;20201;-32
2023/08/31 02:52:38;;;;;;;1.87;1.40;;;;;;;;;;5098173;28;20232;-31
2023/08/31 02:55:06;;;;;;;2.20;1.70;;;;;;;;;;5107175;28;20204;-29
2023/08/31 02:57:33;;;;;;;1.70;1.60;;;;;;;;;;5107729;28;20303;-29
2023/08/31 03:00:00;;;;;;;2.60;1.43;;;;;;;;;;5102739;28;20215;-34
2023/08/31 03:02:27;;;;;;;1.27;1.17;;;;;;;;;;5099390;28;20227;-32
2023/08/31 03:04:54;;;;;;;1.67;1.57;;;;;;;;;;5088324;28;20211;-31
2023/08/31 03:07:23;;;;;;;1.60;1.50;;;;;;;;;;5103097;28;20813;-31
2023/08/31 03:09:51;;;;;;;1.67;1.57;;;;;;;;;;5097923;28;20205;-31
2023/08/31 03:12:18;;;;;;;1.40;1.30;;;;;;;;;;5093434;28;20482;-33
2023/08/31 03:14:45;;;;;;;2.13;1.50;;;;;;;;;;5101296;28;20204;-29
2023/08/31 03:17:12;;;;;;;3.40;1.87;;;;;;;;;;5102642;28;20193;-31
2023/08/31 03:19:39;;;;;;;3.80;1.53;;;;;;;;;;5107265;28;20326;-31
2023/08/31 03:22:06;;;;;;;1.70;1.60;;;;;;;;;;5101143;28;20224;-29
2023/08/31 03:24:35;;;;;;;1.57;1.47;;;;;;;;;;5100863;28;20292;-30
2023/08/31 03:27:03;;;;;;;1.80;1.57;;;;;;;;;;5108614;28;20224;-33
2023/08/31 03:29:31;;;;;;;4.30;1.40;;;;;;;;;;5093990;28;20233;-30
2023/08/31 03:31:58;;;;;;;1.77;1.50;;;;;;;;;;5096930;28;20228;-30
2023/08/31 03:34:29;;;;;;;1.83;1.50;;;;;;;;;;5101359;28;20196;-34
2023/08/31 03:36:57;;;;;;;1.67;1.57;;;;;;;;;;5097069;28;20227;-30
2023/08/31 03:39:24;;;;;;;1.33;1.23;;;;;;;;;;5088809;28;20205;-32
2023/08/31 03:41:53;;;;;;;1.47;1.37;;;;;;;;;;5088635;28;20243;-30
2023/08/31 03:44:22;;;;;;;1.60;1.23;;;;;;;;;;5097616;28;20208;-32
2023/08/31 03:46:49;;;;;;;1.60;1.50;;;;;;;;;;5099245;28;20234;-32
2023/08/31 03:49:16;;;;;;;1.80;1.47;;;;;;;;;;5086643;28;20208;-32
2023/08/31 03:51:44;;;;;;;1.60;1.50;;;;;;;;;;5097279;28;20235;-32
2023/08/31 03:54:12;;;;;;;3.70;1.40;;;;;;;;;;5104418;28;20204;-30
2023/08/31 03:56:40;;;;;;;2.63;1.83;;;;;;;;;;5094416;28;20211;-31
2023/08/31 03:59:09;;;;;;;2.80;1.93;;;;;;;;;;5102443;28;20204;-32
2023/08/31 04:01:36;;;;;;;1.53;1.33;;;;;;;;;;5102126;28;20224;-30
2023/08/31 04:04:03;;;;;;;1.50;1.40;;;;;;;;;;5372733;22;20231;-34
2023/08/31 04:06:31;;;;;;;1.50;1.40;;;;;;;;;;5109700;28;20209;-33
2023/08/31 04:08:58;;;;;;;1.70;1.60;;;;;;;;;;5100150;28;20219;-37
2023/08/31 04:11:26;;;;;;;1.50;1.40;;;;;;;;;;5098438;28;20219;-34
2023/08/31 04:13:53;;;;;;;2.27;1.50;;;;;;;;;;5090194;28;20212;-38
2023/08/31 04:16:21;;;;;;;2.43;1.53;;;;;;;;;;5090093;28;20209;-33
2023/08/31 04:18:51;;;;;;;2.97;1.37;;;;;;;;;;5074484;28;20288;-36
2023/08/31 04:21:18;;;;;;;3.47;1.63;;;;;;;;;;5087270;28;20231;-33
2023/08/31 04:23:45;;;;;;;1.37;1.00;;;;;;;;;;5089847;28;20223;-34
2023/08/31 04:26:13;;;;;;;1.20;1.17;;;;;;;;;;5089680;28;20211;-36
2023/08/31 04:28:41;;;;;;;1.40;1.30;;;;;;;;;;5076159;28;20236;-33
2023/08/31 04:31:08;;;;;;;1.53;1.40;;;;;;;;;;5086156;28;20715;-34
2023/08/31 04:33:36;;;;;;;1.67;1.47;;;;;;;;;;5087965;28;20205;-37
2023/08/31 04:36:04;;;;;;;2.00;1.43;;;;;;;;;;5085013;28;20299;-35
2023/08/31 04:38:31;;;;;;;1.17;1.07;;;;;;;;;;5088141;28;20224;-33
2023/08/31 04:40:59;;;;;;;1.90;1.60;;;;;;;;;;5088887;28;20201;-33
2023/08/31 04:43:27;;;;;;;1.00;1.00;;;;;;;;;;5086056;28;20243;-34
2023/08/31 04:45:54;;;;;;;1.40;1.30;;;;;;;;;;5087805;28;20205;-34
2023/08/31 04:48:21;;;;;;;3.53;1.53;;;;;;;;;;5075625;28;20215;-35
2023/08/31 04:50:49;;;;;;;1.67;1.40;;;;;;;;;;5082847;28;20205;-36
2023/08/31 04:53:16;;;;;;;2.00;1.63;;;;;;;;;;5089117;28;20224;-36
2023/08/31 04:55:44;;;;;;;1.87;1.67;;;;;;;;;;5091531;28;20299;-36
2023/08/31 04:58:11;;;;;;;1.63;1.20;;;;;;;;;;5076618;28;20292;-32
2023/08/31 05:00:39;;;;;;;2.13;1.23;;;;;;;;;;5088574;28;20207;-34
2023/08/31 05:03:06;;;;;;;3.43;1.80;;;;;;;;;;5090610;28;20232;-35
2023/08/31 05:05:34;;;;;;;3.43;1.90;;;;;;;;;;5081417;28;20258;-33
2023/08/31 05:08:02;;;;;;;1.40;1.30;;;;;;;;;;5090007;28;20315;-32
2023/08/31 05:10:29;;;;;;;3.17;1.60;;;;;;;;;;5090852;28;20291;-34
2023/08/31 05:12:56;;;;;;;1.30;1.20;;;;;;;;;;5089168;28;20315;-36
2023/08/31 05:15:27;;;;;;;2.07;1.77;;;;;;;;;;5090512;28;20208;-37
2023/08/31 05:17:54;;;;;;;1.60;1.10;;;;;;;;;;5081120;28;20201;-33
2023/08/31 05:20:23;;;;;;;2.07;1.50;;;;;;;;;;5084259;28;20209;-34
2023/08/31 05:22:50;;;;;;;1.77;1.60;;;;;;;;;;5091786;28;20278;-34
2023/08/31 05:25:19;;;;;;;3.93;2.63;;;;;;;;;;5088334;28;20201;-34
2023/08/31 05:27:46;;;;;;;2.83;2.40;;;;;;;;;;5084442;28;20232;-36
2023/08/31 05:30:13;;;;;;;3.97;2.70;;;;;;;;;;5086688;28;20197;-36
2023/08/31 05:32:40;;;;;;;3.00;2.40;;;;;;;;;;5090002;28;20216;-32
2023/08/31 05:35:08;;;;;;;3.87;2.43;;;;;;;;;;5086198;28;20246;-34
2023/08/31 05:37:35;;;;;;;2.57;1.70;;;;;;;;;;5084802;28;20250;-37
2023/08/31 05:40:06;;;;;;;4.60;1.90;;;;;;;;;;5090133;28;20205;-32
2023/08/31 05:42:34;;;;;;;2.00;1.90;;;;;;;;;;5090190;28;20224;-37
2023/08/31 05:45:01;;;;;;;2.80;2.23;;;;;;;;;;5087824;28;20209;-33
2023/08/31 05:47:28;;;;;;;2.07;1.70;;;;;;;;;;5084842;28;20216;-33
2023/08/31 05:49:55;;;;;;;2.80;1.87;;;;;;;;;;5087430;28;20208;-35
2023/08/31 05:52:23;;;;;;;2.80;1.50;;;;;;;;;;5089053;28;20311;-36
2023/08/31 05:54:50;;;;;;;2.27;1.60;;;;;;;;;;5089774;28;20196;-35
2023/08/31 05:57:20;;;;;;;2.00;1.80;;;;;;;;;;5087288;28;20345;-31
2023/08/31 05:59:49;;;;;;;1.73;1.53;;;;;;;;;;5086127;28;20214;-33
2023/08/31 06:02:16;;;;;;;2.70;1.50;;;;;;;;;;5089416;28;20221;-34
2023/08/31 06:04:44;;;;;;;2.30;1.67;;;;;;;;;;5086178;28;20208;-35
2023/08/31 06:07:11;;;;;;;1.67;1.53;;;;;;;;;;5088889;28;20209;-33
2023/08/31 06:09:38;;;;;;;2.13;1.50;;;;;;;;;;5089701;28;20294;-34
2023/08/31 06:12:06;;;;;;;1.90;1.80;;;;;;;;;;5089354;28;20224;-32
2023/08/31 06:14:33;;;;;;;3.37;1.80;;;;;;;;;;5087071;28;20201;-37
2023/08/31 06:17:02;;;;;;;2.07;1.43;;;;;;;;;;5087248;28;20216;-34
2023/08/31 06:19:29;;;;;;;2.60;1.77;;;;;;;;;;5086309;28;20199;-35
2023/08/31 06:21:59;;;;;;;2.10;1.60;;;;;;;;;;5088230;28;20228;-34
2023/08/31 06:24:26;;;;;;;4.13;1.70;;;;;;;;;;5089709;28;20193;-33
2023/08/31 06:26:54;;;;;;;3.07;1.80;;;;;;;;;;5087645;28;20221;-36
2023/08/31 06:29:22;;;;;;;2.23;1.70;;;;;;;;;;5076892;28;20256;-35
2023/08/31 06:31:49;;;;;;;1.90;1.57;;;;;;;;;;5088876;28;20681;-36
2023/08/31 06:34:17;;;;;;;1.93;1.47;;;;;;;;;;5085768;28;20204;-35
2023/08/31 06:36:44;;;;;;;2.80;1.83;;;;;;;;;;5088526;28;20291;-35
2023/08/31 06:39:11;;;;;;;1.73;1.43;;;;;;;;;;5089444;28;20223;-32
2023/08/31 06:41:39;;;;;;;1.50;1.40;;;;;;;;;;5089314;28;20224;-33
2023/08/31 06:44:06;;;;;;;3.30;1.90;;;;;;;;;;5086105;28;20211;-37
2023/08/31 06:46:37;;;;;;;4.70;1.80;;;;;;;;;;5089295;28;20231;-36
2023/08/31 06:49:05;;;;;;;5.40;1.50;;;;;;;;;;5070482;28;20241;-37
2023/08/31 06:51:33;;;;;;;2.93;1.70;;;;;;;;;;5087773;28;20246;-36
2023/08/31 06:54:05;;;;;;;1.73;1.50;;;;;;;;;;5088831;28;20230;-34
2023/08/31 06:56:32;;;;;;;3.43;1.50;;;;;;;;;;5089277;28;20464;-36
2023/08/31 06:59:00;;;;;;;1.97;1.70;;;;;;;;;;5074564;28;20197;-33
2023/08/31 07:01:27;;;;;;;1.70;1.60;;;;;;;;;;5087971;28;20217;-31
2023/08/31 07:03:54;;;;;;;2.27;1.73;;;;;;;;;;5086762;28;20204;-32
2023/08/31 07:06:21;;;;;;;4.30;1.50;;;;;;;;;;5087253;28;20307;-34
2023/08/31 07:08:50;;;;;;;4.40;1.40;;;;;;;;;;5089768;28;20216;-32
2023/08/31 07:11:17;;;;;;;2.23;1.70;;;;;;;;;;5093341;28;20315;-37
2023/08/31 07:13:44;;;;;;;4.43;1.77;;;;;;;;;;5092951;28;20235;-33
2023/08/31 07:16:11;;;;;;;2.40;1.40;;;;;;;;;;5093425;28;20206;-36
2023/08/31 07:18:39;;;;;;;3.53;1.47;;;;;;;;;;5095937;28;20231;-34
2023/08/31 07:21:06;;;;;;;1.57;1.40;;;;;;;;;;5094156;28;20204;-35
2023/08/31 07:23:33;;;;;;;3.87;1.97;;;;;;;;;;5095806;28;20214;-32
2023/08/31 07:26:04;;;;;;;1.60;1.50;;;;;;;;;;5093534;28;20210;-33
2023/08/31 07:28:31;;;;;;;3.23;1.83;;;;;;;;;;5089950;28;20270;-33
2023/08/31 07:31:04;;;;;;;3.23;1.50;;;;;;;;;;5091652;28;20204;-33
2023/08/31 07:33:32;;;;;;;2.20;1.83;;;;;;;;;;5092399;28;20192;-32
2023/08/31 07:35:59;;;;;;;3.33;2.10;;;;;;;;;;5087840;28;20208;-34
2023/08/31 07:38:26;;;;;;;2.80;1.77;;;;;;;;;;5091493;28;20295;-33
2023/08/31 07:40:54;;;;;;;1.70;1.60;;;;;;;;;;5092259;28;20205;-33
2023/08/31 07:43:22;;;;;;;2.40;1.50;;;;;;;;;;5090241;28;20200;-36
2023/08/31 07:45:50;;;;;;;4.17;2.03;;;;;;;;;;5088628;28;20270;-32
2023/08/31 07:48:17;;;;;;;2.60;1.60;;;;;;;;;;5089428;28;20222;-35
2023/08/31 07:50:44;;;;;;;3.93;1.73;;;;;;;;;;5091740;28;20239;-32
2023/08/31 07:53:12;;;;;;;3.00;1.93;;;;;;;;;;5094792;28;20227;-36
2023/08/31 07:55:39;;;;;;;3.57;1.67;;;;;;;;;;5092988;28;20204;-35
2023/08/31 07:58:06;;;;;;;2.93;1.53;;;;;;;;;;5092781;28;20463;-37
2023/08/31 08:00:35;;;;;;;2.13;1.60;;;;;;;;;;5089572;28;20207;-36
2023/08/31 08:03:02;;;;;;;2.50;1.63;;;;;;;;;;5091808;28;20244;-35
2023/08/31 08:05:29;;;;;;;3.77;1.77;;;;;;;;;;5088743;28;20201;-35
2023/08/31 08:07:56;;;;;;;3.03;1.73;;;;;;;;;;5090254;28;20212;-36
2023/08/31 08:10:23;;;;;;;3.30;1.73;;;;;;;;;;5088034;28;20205;-32
2023/08/31 08:12:50;;;;;;;1.97;1.60;;;;;;;;;;5088464;28;20249;-32
2023/08/31 08:15:17;;;;;;;2.17;1.97;;;;;;;;;;5090975;28;20351;-34
2023/08/31 08:17:47;;;;;;;3.63;2.07;;;;;;;;;;5086036;28;20201;-31
2023/08/31 08:20:14;;;;;;;1.97;1.67;;;;;;;;;;5079616;28;20197;-34
2023/08/31 08:22:41;;;;;;;1.70;1.40;;;;;;;;;;5090390;28;20224;-35
2023/08/31 08:25:09;;;;;;;5.23;1.77;;;;;;;;;;5091282;28;20204;-35
2023/08/31 08:27:36;;;;;;;2.63;1.47;;;;;;;;;;5088565;28;20204;-35
2023/08/31 08:30:04;;;;;;;2.83;1.60;;;;;;;;;;5085754;28;20230;-35
2023/08/31 08:32:31;;;;;;;4.10;1.63;;;;;;;;;;5089481;28;20209;-34
2023/08/31 08:35:00;;;;;;;3.87;1.63;;;;;;;;;;5086964;28;20442;-35
2023/08/31 08:37:39;;;;;;;4.07;1.60;;;;;;;;;;5086371;28;20287;-37
2023/08/31 08:40:07;;;;;;;1.97;1.20;;;;;;;;;;5088845;28;20224;-40
2023/08/31 08:42:36;;;;;;;3.97;1.80;;;;;;;;;;5089682;28;20321;-42
2023/08/31 08:45:04;;;;;;;2.53;1.53;;;;;;;;;;5091269;28;20247;-40
2023/08/31 08:47:31;;;;;;;2.07;1.47;;;;;;;;;;5087312;28;20213;-44
2023/08/31 08:50:01;;;;;;;3.87;1.90;;;;;;;;;;5076626;28;20488;-42
2023/08/31 08:52:30;;;;;;;3.50;1.70;;;;;;;;;;5090368;28;20225;-42
2023/08/31 08:54:58;;;;;;;2.77;1.30;;;;;;;;;;5090315;28;20292;-44
2023/08/31 08:57:25;;;;;;;2.47;1.40;;;;;;;;;;5090353;28;20201;-41
2023/08/31 08:59:52;;;;;;;3.90;1.50;;;;;;;;;;5088525;28;20208;-43
2023/08/31 09:02:20;;;;;;;2.67;1.40;;;;;;;;;;5089757;28;20224;-43
2023/08/31 09:04:47;;;;;;;2.77;2.03;;;;;;;;;;5086674;28;20492;-43
2023/08/31 09:07:15;;;;;;;4.60;1.50;;;;;;;;;;5088603;28;20217;-43
2023/08/31 09:09:52;;;;;;;2.23;1.60;;;;;;;;;;5076929;28;20249;-45
2023/08/31 09:12:22;;;;;;;1.67;1.30;;;;;;;;;;5088174;28;20224;-44
2023/08/31 09:15:01;;;;;;;2.27;1.43;;;;;;;;;;5088479;28;20201;-40
2023/08/31 09:17:40;;;;;;;3.90;1.17;;;;;;;;;;5088788;28;20209;-43
2023/08/31 09:20:09;;;;;;;4.00;1.77;;;;;;;;;;5077991;28;20201;-40
2023/08/31 09:22:37;;;;;;;4.90;1.57;;;;;;;;;;5080781;28;20233;-42
2023/08/31 09:25:04;;;;;;;4.70;1.50;;;;;;;;;;5090075;28;20536;-44
2023/08/31 09:27:33;;;;;;;1.50;1.40;;;;;;;;;;5086745;28;20209;-43
2023/08/31 09:30:00;;;;;;;4.17;1.33;;;;;;;;;;5085197;28;20220;-43
2023/08/31 09:32:27;;;;;;;2.10;1.40;;;;;;;;;;5087020;28;20327;-41
2023/08/31 09:34:54;;;;;;;1.73;1.63;;;;;;;;;;5082016;28;20218;-43
2023/08/31 09:37:21;;;;;;;3.23;1.50;;;;;;;;;;5088667;28;20232;-43
2023/08/31 09:39:50;;;;;;;4.27;1.80;;;;;;;;;;5084485;28;20495;-38
2023/08/31 09:42:17;;;;;;;4.10;1.43;;;;;;;;;;5089488;28;20228;-40
2023/08/31 09:44:46;;;;;;;2.13;1.23;;;;;;;;;;5087141;28;20210;-41
2023/08/31 09:47:15;;;;;;;2.73;1.70;;;;;;;;;;5089442;28;20209;-44
2023/08/31 09:49:43;;;;;;;1.67;1.40;;;;;;;;;;5087403;28;20267;-42
2023/08/31 09:52:10;;;;;;;3.83;1.77;;;;;;;;;;5088465;28;20224;-45
2023/08/31 09:54:38;;;;;;;2.57;1.77;;;;;;;;;;5089828;28;20200;-46
2023/08/31 09:57:06;;;;;;;4.80;1.50;;;;;;;;;;5088185;28;20215;-38
2023/08/31 09:59:35;;;;;;;2.17;1.60;;;;;;;;;;5087376;28;20295;-41
2023/08/31 10:02:03;;;;;;;3.47;1.63;;;;;;;;;;5089268;28;20216;-43
2023/08/31 10:04:32;;;;;;;1.80;1.10;;;;;;;;;;5088429;28;20220;-43
2023/08/31 10:06:59;;;;;;;3.53;1.80;;;;;;;;;;5089270;28;20208;-39
2023/08/31 10:09:27;;;;;;;2.53;1.63;;;;;;;;;;5093529;28;20244;-45
2023/08/31 10:11:55;;;;;;;3.00;1.37;;;;;;;;;;5097667;28;20222;-40
2023/08/31 10:14:24;;;;;;;2.60;1.30;;;;;;;;;;5089988;28;20286;-41
2023/08/31 10:16:53;;;;;;;2.73;1.40;;;;;;;;;;5094020;28;20211;-41
2023/08/31 10:19:20;;;;;;;2.20;1.63;;;;;;;;;;5087929;28;20271;-41
2023/08/31 10:21:48;;;;;;;2.10;1.67;;;;;;;;;;5092197;28;20224;-43
2023/08/31 10:24:15;;;;;;;4.60;1.90;;;;;;;;;;5093269;28;20213;-41
2023/08/31 10:26:42;;;;;;;2.07;1.20;;;;;;;;;;5093840;28;20208;-41
2023/08/31 10:29:27;;;;;;;1.87;1.40;;;;;;;;;;5093072;28;20224;-42
2023/08/31 10:31:56;;;;;;;5.13;1.87;;;;;;;;;;5094626;28;20232;-41
2023/08/31 10:34:36;;;;;;;3.03;1.63;;;;;;;;;;5091532;28;20232;-40
2023/08/31 10:37:04;;;;;;;2.30;1.50;;;;;;;;;;5094517;28;20200;-38
2023/08/31 10:39:39;;;;;;;1.87;1.20;;;;;;;;;;5091913;28;20191;-44
2023/08/31 10:42:06;;;;;;;1.63;1.37;;;;;;;;;;5097597;28;20224;-38
2023/08/31 10:44:33;;;;;;;2.33;1.50;;;;;;;;;;5100968;28;20303;-42
2023/08/31 10:47:04;;;;;;;2.43;1.13;;;;;;;;;;5096367;28;20290;-45
2023/08/31 10:49:32;;;;;;;1.90;1.20;;;;;;;;;;5088362;28;20274;-45
2023/08/31 10:52:16;;;;;;;6.30;1.60;;;;;;;;;;5092589;28;20246;-39
2023/08/31 10:54:43;;;;;;;2.17;1.67;;;;;;;;;;5093469;28;20282;-43
2023/08/31 10:57:12;;;;;;;4.23;1.40;;;;;;;;;;5101625;28;20185;-42
2023/08/31 10:59:42;;;;;;;1.17;0.80;;;;;;;;;;5094269;28;20211;-40
2023/08/31 11:02:11;;;;;;;4.10;1.43;;;;;;;;;;5091950;28;20220;-42
2023/08/31 11:04:53;;;;;;;2.23;1.50;;;;;;;;;;5091387;28;20219;-40
2023/08/31 11:07:21;;;;;;;3.63;1.40;;;;;;;;;;5092303;28;20204;-45
2023/08/31 11:09:48;;;;;;;3.23;1.57;;;;;;;;;;5099648;28;20220;-43
2023/08/31 11:12:15;;;;;;;2.20;1.40;;;;;;;;;;5101942;28;20221;-41
2023/08/31 11:14:42;;;;;;;3.47;1.50;;;;;;;;;;5095526;28;20209;-42
2023/08/31 11:17:12;;;;;;;2.77;1.53;;;;;;;;;;5094322;28;20283;-42
2023/08/31 11:19:39;;;;;;;2.37;1.50;;;;;;;;;;5091931;28;20212;-41
2023/08/31 11:22:09;;;;;;;2.53;1.60;;;;;;;;;;5091700;28;20232;-33
2023/08/31 11:24:37;;;;;;;6.60;1.80;;;;;;;;;;5096274;28;20662;-43
2023/08/31 11:27:04;;;;;;;5.17;1.80;;;;;;;;;;5092924;28;20203;-41
2023/08/31 11:29:31;;;;;;;3.13;1.97;;;;;;;;;;5082743;28;20212;-41
2023/08/31 11:32:00;;;;;;;2.40;1.53;;;;;;;;;;5095533;28;20220;-40
2023/08/31 11:34:28;;;;;;;4.57;1.60;;;;;;;;;;5089125;28;20503;-39
2023/08/31 11:36:55;;;;;;;4.77;1.70;;;;;;;;;;5098021;28;20201;-41
2023/08/31 11:39:24;;;;;;;2.83;1.73;;;;;;;;;;5100625;28;20198;-42
2023/08/31 11:41:51;;;;;;;2.43;1.70;;;;;;;;;;5099587;28;20224;-41
2023/08/31 11:44:20;;;;;;;2.87;1.43;;;;;;;;;;5096164;28;20288;-39
2023/08/31 11:46:49;;;;;;;3.20;1.60;;;;;;;;;;5095276;28;20207;-37
2023/08/31 11:49:17;;;;;;;4.13;1.53;;;;;;;;;;5089945;28;20208;-40
2023/08/31 11:51:46;;;;;;;3.87;1.57;;;;;;;;;;5091286;28;20225;-42
2023/08/31 11:54:13;;;;;;;4.77;1.60;;;;;;;;;;5096252;28;20201;-41
2023/08/31 11:56:40;;;;;;;3.90;1.70;;;;;;;;;;5097114;28;20207;-38
2023/08/31 11:59:11;;;;;;;6.53;1.40;;;;;;;;;;5100537;28;20204;-40
2023/08/31 12:01:40;;;;;;;2.77;1.50;;;;;;;;;;5097489;28;20211;-43
2023/08/31 12:04:14;;;;;;;4.70;1.53;;;;;;;;;;5090437;28;20211;-43
2023/08/31 12:06:41;;;;;;;2.00;1.50;;;;;;;;;;5099213;28;20253;-42
2023/08/31 12:09:10;;;;;;;1.67;1.30;;;;;;;;;;5099325;28;20227;-44
2023/08/31 12:11:51;;;;;;;2.97;1.43;;;;;;;;;;5090523;28;20332;-42
2023/08/31 12:14:22;;;;;;;2.00;1.50;;;;;;;;;;5091894;28;20206;-41
2023/08/31 12:16:49;;;;;;;4.87;1.43;;;;;;;;;;5101445;28;20246;-41
2023/08/31 12:19:16;;;;;;;10.23;1.60;;;;;;;;;;5100961;28;20213;-42
2023/08/31 12:21:46;;;;;;;2.43;1.97;;;;;;;;;;5094051;28;20221;-39
2023/08/31 12:24:16;;;;;;;2.27;1.30;;;;;;;;;;5094702;28;20632;-44
2023/08/31 12:26:44;;;;;;;2.93;1.50;;;;;;;;;;5099472;28;20208;-42
2023/08/31 12:29:11;;;;;;;3.87;1.30;;;;;;;;;;5093129;28;20209;-45
2023/08/31 12:31:38;;;;;;;2.73;1.60;;;;;;;;;;5098822;28;20221;-41
2023/08/31 12:34:06;;;;;;;3.63;1.93;;;;;;;;;;5097581;28;20210;-40
2023/08/31 12:36:33;;;;;;;1.93;1.50;;;;;;;;;;5094518;28;20213;-39
2023/08/31 12:39:01;;;;;;;3.83;1.53;;;;;;;;;;5096015;28;20200;-41
2023/08/31 12:41:30;;;;;;;2.83;1.50;;;;;;;;;;5096883;28;20220;-40
2023/08/31 12:43:57;;;;;;;2.27;1.40;;;;;;;;;;5098610;28;20211;-41
2023/08/31 12:46:24;;;;;;;4.80;2.23;;;;;;;;;;5095268;28;20712;-37
2023/08/31 12:48:52;;;;;;;3.17;1.20;;;;;;;;;;5091463;28;20235;-41
2023/08/31 12:51:19;;;;;;;5.37;1.70;;;;;;;;;;5093100;28;20225;-45
2023/08/31 12:53:46;;;;;;;1.97;1.43;;;;;;;;;;5100771;28;20287;-43
2023/08/31 12:56:15;;;;;;;5.07;1.50;;;;;;;;;;5107225;28;20199;-37
2023/08/31 12:58:43;;;;;;;4.33;1.70;;;;;;;;;;5100795;28;20296;-42
2023/08/31 13:01:10;;;;;;;3.10;1.60;;;;;;;;;;5093707;28;20201;-41
2023/08/31 13:03:37;;;;;;;3.17;1.50;;;;;;;;;;5088162;28;20365;-45
2023/08/31 13:06:05;;;;;;;1.87;1.50;;;;;;;;;;5091488;28;20579;-41
2023/08/31 13:08:32;;;;;;;3.27;1.63;;;;;;;;;;5099815;28;20296;-44
2023/08/31 13:10:59;;;;;;;2.43;1.33;;;;;;;;;;5093889;28;20212;-39
2023/08/31 13:13:26;;;;;;;2.20;1.87;;;;;;;;;;5091153;28;20284;-42
2023/08/31 13:15:55;;;;;;;3.50;1.80;;;;;;;;;;5094286;28;20197;-42
2023/08/31 13:18:22;;;;;;;2.57;1.60;;;;;;;;;;5100114;28;20546;-41
2023/08/31 13:20:52;;;;;;;2.57;1.50;;;;;;;;;;5094977;28;20205;-44
2023/08/31 13:23:20;;;;;;;3.03;1.33;;;;;;;;;;5092976;28;20207;-44
2023/08/31 13:25:50;;;;;;;3.17;1.60;;;;;;;;;;5093619;28;20452;-41
2023/08/31 13:28:17;;;;;;;1.77;1.50;;;;;;;;;;5098645;28;20241;-39
2023/08/31 13:30:44;;;;;;;5.00;1.27;;;;;;;;;;5089579;28;20284;-45
2023/08/31 13:33:12;;;;;;;3.53;1.60;;;;;;;;;;5094326;28;20243;-40
2023/08/31 13:35:40;;;;;;;2.83;1.60;;;;;;;;;;5088192;28;20202;-42
2023/08/31 13:38:07;;;;;;;1.67;1.57;;;;;;;;;;5094733;28;20621;-40
2023/08/31 13:40:36;;;;;;;1.97;1.40;;;;;;;;;;5098164;28;20200;-45
2023/08/31 13:43:03;;;;;;;3.10;1.50;;;;;;;;;;5087472;28;20227;-44
2023/08/31 13:45:33;;;;;;;4.17;1.43;;;;;;;;;;5092300;28;20197;-41
2023/08/31 13:48:04;;;;;;;3.10;1.53;;;;;;;;;;5087425;28;20210;-38
2023/08/31 13:50:32;;;;;;;1.33;1.20;;;;;;;;;;5091596;28;20233;-38
2023/08/31 13:52:59;;;;;;;2.07;1.60;;;;;;;;;;5092508;28;20221;-38
2023/08/31 13:55:27;;;;;;;2.20;1.37;;;;;;;;;;5099716;28;20196;-42
2023/08/31 13:57:55;;;;;;;2.70;1.10;;;;;;;;;;5093522;28;20223;-43
2023/08/31 14:00:22;;;;;;;4.53;1.60;;;;;;;;;;5093891;28;20202;-43
2023/08/31 14:02:49;;;;;;;3.40;1.50;;;;;;;;;;5092779;28;20232;-44
2023/08/31 14:05:16;;;;;;;4.07;1.70;;;;;;;;;;5095019;28;20206;-43
2023/08/31 14:07:45;;;;;;;2.33;1.60;;;;;;;;;;5091655;28;20219;-44
2023/08/31 14:10:12;;;;;;;3.87;1.53;;;;;;;;;;5094313;28;20212;-41
2023/08/31 14:12:39;;;;;;;4.67;1.70;;;;;;;;;;5097352;28;20220;-42
2023/08/31 14:15:07;;;;;;;1.70;1.27;;;;;;;;;;5092197;28;20710;-45
2023/08/31 14:17:34;;;;;;;3.00;1.70;;;;;;;;;;5101478;28;20678;-42
2023/08/31 14:20:06;;;;;;;4.37;1.77;;;;;;;;;;5081332;28;20232;-45
2023/08/31 14:22:33;;;;;;;2.10;1.60;;;;;;;;;;5090854;28;20299;-46
2023/08/31 14:25:03;;;;;;;3.37;1.43;;;;;;;;;;5093937;28;20283;-43
2023/08/31 14:27:30;;;;;;;5.20;1.73;;;;;;;;;;5103564;28;20208;-45
2023/08/31 14:29:58;;;;;;;4.23;1.50;;;;;;;;;;5095938;28;20209;-35
2023/08/31 14:32:25;;;;;;;3.77;1.27;;;;;;;;;;5089190;28;20221;-43
2023/08/31 14:34:52;;;;;;;2.90;1.50;;;;;;;;;;5093957;28;20206;-40
2023/08/31 14:37:19;;;;;;;4.20;1.47;;;;;;;;;;5086476;28;20215;-39
2023/08/31 14:39:46;;;;;;;1.97;1.47;;;;;;;;;;5100260;28;20203;-44
2023/08/31 14:42:17;;;;;;;2.23;1.30;;;;;;;;;;5082683;28;20220;-43
2023/08/31 14:44:46;;;;;;;5.07;1.93;;;;;;;;;;5091982;28;20205;-41
2023/08/31 14:47:14;;;;;;;2.80;1.40;;;;;;;;;;5100782;28;20243;-44
2023/08/31 14:49:44;;;;;;;1.53;1.43;;;;;;;;;;5094310;28;20200;-36